Time;durP1;ratioP1;P1;durP2;ratioP2;P2;SDS_P1;SDS_P2;PMS_P1;PMS_P2;Temp;Humidity;BMP_temperature;BMP_pressure;BME280_temperature;BME280_humidity;BME280_pressure;Samples;Min_cycle;Max_cycle;Signal;HPM_P1;HPM_P2
2023/05/31 00:00:09;;;;;;;6.65;2.95;;;;;16.60;99066.00;;;;5051265;28;20091;-61
2023/05/31 00:02:36;;;;;;;5.70;2.22;;;;;16.70;99069.00;;;;5051233;28;20103;-61
2023/05/31 00:05:03;;;;;;;4.47;2.30;;;;;16.80;99060.00;;;;5051354;28;20056;-61
2023/05/31 00:07:29;;;;;;;4.57;2.15;;;;;16.70;99062.00;;;;5051296;28;20511;-61
2023/05/31 00:09:56;;;;;;;5.60;2.00;;;;;16.60;99059.00;;;;5051146;28;20053;-61
2023/05/31 00:12:22;;;;;;;4.50;2.13;;;;;16.50;99061.00;;;;5050140;28;20049;-61
2023/05/31 00:14:49;;;;;;;9.30;2.20;;;;;16.50;99060.00;;;;5051414;28;20168;-61
2023/05/31 00:17:15;;;;;;;3.60;2.28;;;;;16.50;99060.00;;;;5051372;28;20043;-61
2023/05/31 00:19:45;;;;;;;6.65;2.30;;;;;16.50;99060.00;;;;5051118;28;20049;-61
2023/05/31 00:22:12;;;;;;;4.43;2.53;;;;;16.40;99057.00;;;;5051291;28;20045;-61
2023/05/31 00:24:38;;;;;;;8.70;3.00;;;;;16.40;99054.00;;;;5049859;28;20084;-61
2023/05/31 00:27:05;;;;;;;6.18;2.35;;;;;16.40;99054.00;;;;5054630;28;20512;-61
2023/05/31 00:29:32;;;;;;;5.57;2.10;;;;;16.50;99057.00;;;;5054370;28;20041;-61
2023/05/31 00:31:59;;;;;;;7.05;2.72;;;;;16.50;99047.00;;;;5053366;28;20044;-61
2023/05/31 00:34:26;;;;;;;5.88;2.22;;;;;16.30;99050.00;;;;5054779;28;20413;-61
2023/05/31 00:36:53;;;;;;;9.25;2.55;;;;;16.20;99050.00;;;;5054409;28;20045;-61
2023/05/31 00:39:19;;;;;;;5.93;2.45;;;;;16.10;99048.00;;;;5052946;28;20156;-61
2023/05/31 00:41:46;;;;;;;5.78;2.35;;;;;16.10;99049.00;;;;5053256;28;20044;-61
2023/05/31 00:44:12;;;;;;;6.90;2.22;;;;;16.10;99048.00;;;;5054537;28;20075;-61
2023/05/31 00:46:40;;;;;;;5.63;2.35;;;;;16.20;99062.00;;;;5053008;28;20044;-61
2023/05/31 00:49:07;;;;;;;6.60;2.53;;;;;16.20;99062.00;;;;5052732;28;20041;-61
2023/05/31 00:51:36;;;;;;;5.28;2.22;;;;;16.30;99065.00;;;;5054208;28;20049;-61
2023/05/31 00:54:03;;;;;;;8.10;3.00;;;;;16.30;99051.00;;;;5054210;28;20120;-61
2023/05/31 00:56:29;;;;;;;7.32;2.70;;;;;16.10;99050.00;;;;5052131;28;20045;-61
2023/05/31 00:58:59;;;;;;;5.30;2.25;;;;;16.00;99040.00;;;;5052750;28;20076;-61
2023/05/31 01:01:27;;;;;;;5.45;2.22;;;;;15.90;99048.00;;;;5052889;28;20072;-61
2023/05/31 01:03:55;;;;;;;7.43;2.00;;;;;15.90;99051.00;;;;5054003;28;20449;-61
2023/05/31 01:06:23;;;;;;;7.88;2.42;;;;;15.90;99051.00;;;;5053783;28;20060;-61
2023/05/31 01:08:51;;;;;;;9.13;2.85;;;;;15.90;99053.00;;;;5053770;28;20087;-59
2023/05/31 01:11:53;;;;;;;6.95;2.30;;;;;15.90;99056.00;;;;5053766;28;20041;-61
2023/05/31 01:14:47;;;;;;;6.68;2.65;;;;;15.90;99052.00;;;;5052568;28;20057;-63
2023/05/31 01:17:36;;;;;;;6.38;2.50;;;;;15.90;99051.00;;;;5036131;28;20496;-61
2023/05/31 01:20:09;;;;;;;6.75;3.15;;;;;16.00;99057.00;;;;5053565;28;20498;-61
2023/05/31 01:23:00;;;;;;;8.32;2.92;;;;;15.90;99052.00;;;;5054085;28;20132;-61
2023/05/31 01:25:42;;;;;;;7.68;2.53;;;;;15.70;99058.00;;;;5054461;28;20492;-60
2023/05/31 01:28:10;;;;;;;6.18;2.42;;;;;15.70;99043.00;;;;5052284;28;20041;-61
2023/05/31 01:30:38;;;;;;;8.85;3.33;;;;;15.70;99047.00;;;;5053686;28;20498;-60
2023/05/31 01:33:09;;;;;;;7.53;2.45;;;;;15.70;99047.00;;;;5053848;28;20051;-61
2023/05/31 01:35:35;;;;;;;9.23;2.83;;;;;15.70;99048.00;;;;5054794;28;20092;-60
2023/05/31 01:38:02;;;;;;;7.57;2.45;;;;;15.70;99054.00;;;;5052825;28;20536;-62
2023/05/31 01:40:30;;;;;;;5.00;2.08;;;;;15.60;99047.00;;;;5052602;28;20079;-60
2023/05/31 01:42:59;;;;;;;5.63;2.53;;;;;15.50;99043.00;;;;5053071;28;20053;-66
2023/05/31 01:45:27;;;;;;;6.28;2.53;;;;;15.50;99039.00;;;;5053892;28;20127;-59
2023/05/31 01:48:01;;;;;;;4.13;2.30;;;;;15.40;99053.00;;;;5054210;28;20067;-59
2023/05/31 01:50:29;;;;;;;6.95;2.80;;;;;15.40;99049.00;;;;5054541;28;20045;-60
2023/05/31 01:52:56;;;;;;;6.28;2.33;;;;;15.40;99050.00;;;;5052354;28;20080;-60
2023/05/31 01:55:22;;;;;;;5.13;2.00;;;;;15.40;99055.00;;;;5052181;28;20128;-61
2023/05/31 01:57:51;;;;;;;8.50;2.55;;;;;15.30;99053.00;;;;5052068;28;20041;-61
2023/05/31 02:00:19;;;;;;;6.40;2.33;;;;;15.20;99047.00;;;;5052180;28;20414;-60
2023/05/31 02:02:47;;;;;;;6.20;2.50;;;;;15.20;99036.00;;;;5053608;28;20041;-60
2023/05/31 02:05:13;;;;;;;5.78;2.22;;;;;15.20;99052.00;;;;5052355;28;20053;-61
2023/05/31 02:07:41;;;;;;;5.43;2.78;;;;;15.20;99048.00;;;;5053601;28;20087;-60
2023/05/31 02:10:08;;;;;;;8.25;2.65;;;;;15.20;99043.00;;;;5052963;28;20052;-60
2023/05/31 02:12:37;;;;;;;4.10;2.40;;;;;15.20;99043.00;;;;5052589;28;20411;-60
2023/05/31 02:15:10;;;;;;;8.25;2.65;;;;;15.20;99040.00;;;;5052731;28;20045;-61
2023/05/31 02:17:42;;;;;;;11.05;3.45;;;;;15.10;99047.00;;;;5053706;28;20049;-59
2023/05/31 02:20:12;;;;;;;7.40;2.20;;;;;15.10;99042.00;;;;5052845;28;20571;-60
2023/05/31 02:22:44;;;;;;;7.25;3.38;;;;;15.00;99044.00;;;;5051163;28;20045;-61
2023/05/31 02:25:12;;;;;;;10.63;3.22;;;;;15.10;99048.00;;;;5052543;28;20051;-60
2023/05/31 02:27:40;;;;;;;5.07;2.42;;;;;15.10;99047.00;;;;5051287;28;20529;-61
2023/05/31 02:30:08;;;;;;;6.75;2.78;;;;;15.10;99049.00;;;;5052509;28;20041;-61
2023/05/31 02:32:37;;;;;;;6.65;2.83;;;;;15.00;99050.00;;;;5051353;28;20071;-61
2023/05/31 02:35:08;;;;;;;9.57;3.08;;;;;14.90;99051.00;;;;5052269;28;20052;-61
2023/05/31 02:37:37;;;;;;;4.53;2.97;;;;;14.80;99044.00;;;;5051232;28;20128;-61
2023/05/31 02:40:07;;;;;;;6.68;3.03;;;;;14.90;99057.00;;;;5052094;28;20041;-60
2023/05/31 02:42:35;;;;;;;6.45;2.72;;;;;14.90;99050.00;;;;5051027;28;20215;-62
2023/05/31 02:45:02;;;;;;;5.43;2.60;;;;;14.90;99047.00;;;;5051192;28;20682;-61
2023/05/31 02:47:29;;;;;;;5.53;2.78;;;;;14.90;99054.00;;;;5056051;28;20456;-61
2023/05/31 02:49:56;;;;;;;9.07;2.97;;;;;14.80;99056.00;;;;5056209;28;20095;-61
2023/05/31 02:52:26;;;;;;;8.48;2.95;;;;;14.90;99049.00;;;;5054527;28;20059;-60
2023/05/31 02:54:56;;;;;;;9.90;3.10;;;;;14.90;99049.00;;;;5052592;28;20080;-61
2023/05/31 02:57:26;;;;;;;7.32;2.58;;;;;14.80;99050.00;;;;5051205;28;20048;-60
2023/05/31 03:00:13;;;;;;;7.65;2.80;;;;;14.80;99040.00;;;;5050606;28;20060;-60
2023/05/31 03:02:40;;;;;;;6.82;3.08;;;;;14.80;99051.00;;;;5050803;28;20059;-61
2023/05/31 03:05:20;;;;;;;8.27;2.95;;;;;14.70;99054.00;;;;5051051;28;20498;-61
2023/05/31 03:07:48;;;;;;;9.52;2.83;;;;;14.60;99054.00;;;;5052137;28;20405;-61
2023/05/31 03:10:15;;;;;;;5.50;2.70;;;;;14.60;99053.00;;;;5053995;28;20124;-61
2023/05/31 03:12:42;;;;;;;7.85;3.00;;;;;14.60;99048.00;;;;5052235;28;20049;-61
2023/05/31 03:15:09;;;;;;;7.90;2.83;;;;;14.70;99059.00;;;;5051392;28;20072;-61
2023/05/31 03:17:39;;;;;;;4.80;2.70;;;;;14.70;99058.00;;;;5051809;28;20045;-60
2023/05/31 03:20:10;;;;;;;5.80;2.70;;;;;14.70;99065.00;;;;5052631;28;20094;-59
2023/05/31 03:22:39;;;;;;;9.68;3.45;;;;;14.70;99064.00;;;;5051540;28;20476;-60
2023/05/31 03:25:07;;;;;;;9.70;3.95;;;;;14.70;99062.00;;;;5051348;28;20398;-61
2023/05/31 03:27:33;;;;;;;20.60;11.77;;;;;14.70;99063.00;;;;5050932;28;20633;-61
2023/05/31 03:30:01;;;;;;;12.73;5.47;;;;;14.60;99065.00;;;;5051179;28;20052;-62
2023/05/31 03:32:31;;;;;;;13.23;3.50;;;;;14.70;99065.00;;;;5051141;28;20460;-59
2023/05/31 03:35:00;;;;;;;5.70;2.70;;;;;14.70;99064.00;;;;5051745;28;20084;-60
2023/05/31 03:37:27;;;;;;;8.40;3.47;;;;;14.70;99068.00;;;;5050061;28;20052;-60
2023/05/31 03:40:05;;;;;;;10.25;3.53;;;;;14.60;99060.00;;;;5050360;28;20047;-62
2023/05/31 03:42:32;;;;;;;8.38;4.43;;;;;14.60;99067.00;;;;5050380;28;20057;-62
2023/05/31 03:44:59;;;;;;;12.75;5.97;;;;;14.60;99061.00;;;;5050627;28;20087;-62
2023/05/31 03:47:27;;;;;;;6.00;3.30;;;;;14.60;99064.00;;;;5050405;28;20132;-59
2023/05/31 03:49:54;;;;;;;11.57;4.82;;;;;14.60;99057.00;;;;5050530;28;20137;-60
2023/05/31 03:52:20;;;;;;;7.90;3.75;;;;;14.50;99062.00;;;;5051472;28;20144;-61
2023/05/31 03:54:47;;;;;;;10.13;3.40;;;;;14.50;99061.00;;;;5051580;28;20049;-61
2023/05/31 03:57:15;;;;;;;12.13;6.35;;;;;14.50;99062.00;;;;5050582;28;20041;-59
2023/05/31 03:59:41;;;;;;;17.15;7.68;;;;;14.50;99055.00;;;;5051255;28;20045;-61
2023/05/31 04:02:08;;;;;;;11.20;5.97;;;;;14.50;99056.00;;;;5055729;28;20045;-62
2023/05/31 04:04:35;;;;;;;10.45;4.03;;;;;14.50;99056.00;;;;5055248;28;20682;-61
2023/05/31 04:07:02;;;;;;;10.50;4.85;;;;;14.50;99059.00;;;;5053833;28;20067;-61
2023/05/31 04:09:29;;;;;;;6.63;4.00;;;;;14.40;99059.00;;;;5053622;28;20517;-62
2023/05/31 04:11:57;;;;;;;8.52;3.45;;;;;14.50;99066.00;;;;5053767;28;20525;-61
2023/05/31 04:14:24;;;;;;;8.63;4.00;;;;;14.60;99066.00;;;;5055053;28;20041;-61
2023/05/31 04:16:51;;;;;;;7.45;3.28;;;;;14.50;99064.00;;;;5053618;28;20052;-61
2023/05/31 04:19:19;;;;;;;7.13;3.83;;;;;14.60;99061.00;;;;5053665;28;20049;-61
2023/05/31 04:21:47;;;;;;;6.82;3.75;;;;;14.70;99065.00;;;;5053659;28;20048;-62
2023/05/31 04:24:14;;;;;;;10.05;3.53;;;;;14.70;99063.00;;;;5053422;28;20057;-60
2023/05/31 04:26:41;;;;;;;7.45;2.90;;;;;14.80;99061.00;;;;5053361;28;20049;-59
2023/05/31 04:29:09;;;;;;;8.50;3.05;;;;;14.90;99061.00;;;;5053047;28;20461;-60
2023/05/31 04:31:36;;;;;;;5.60;3.15;;;;;14.90;99069.00;;;;5053572;28;20075;-61
2023/05/31 04:34:18;;;;;;;7.35;3.00;;;;;14.90;99067.00;;;;5053440;28;20111;-61
2023/05/31 04:36:49;;;;;;;8.07;3.67;;;;;15.00;99072.00;;;;5053321;28;20049;-61
2023/05/31 04:39:21;;;;;;;10.65;4.15;;;;;15.10;99073.00;;;;5053048;28;20102;-62
2023/05/31 04:41:50;;;;;;;8.48;3.63;;;;;15.10;99073.00;;;;5053184;28;20663;-61
2023/05/31 04:44:18;;;;;;;13.95;4.25;;;;;15.20;99072.00;;;;5036636;28;20056;-61
2023/05/31 04:46:48;;;;;;;9.23;3.53;;;;;15.20;99067.00;;;;5052981;28;20095;-61
2023/05/31 04:49:16;;;;;;;8.93;4.00;;;;;15.30;99062.00;;;;5052844;28;20049;-61
2023/05/31 04:51:42;;;;;;;6.03;3.35;;;;;15.50;99061.00;;;;5053211;28;20048;-61
2023/05/31 04:54:09;;;;;;;8.25;3.03;;;;;15.60;99070.00;;;;5054227;28;20052;-61
2023/05/31 04:56:35;;;;;;;8.80;3.80;;;;;15.70;99066.00;;;;5052869;28;20069;-60
2023/05/31 04:59:02;;;;;;;10.00;3.85;;;;;15.80;99062.00;;;;5052856;28;20430;-60
2023/05/31 05:01:29;;;;;;;7.50;3.03;;;;;15.90;99068.00;;;;5052676;28;20041;-61
2023/05/31 05:04:02;;;;;;;9.52;3.72;;;;;16.00;99071.00;;;;5052838;28;20072;-60
2023/05/31 05:06:29;;;;;;;8.35;3.97;;;;;16.10;99066.00;;;;5052684;28;20077;-61
2023/05/31 05:08:56;;;;;;;9.77;4.10;;;;;16.30;99078.00;;;;5053854;28;20082;-60
2023/05/31 05:11:25;;;;;;;8.82;4.18;;;;;16.30;99074.00;;;;5051890;28;20088;-60
2023/05/31 05:13:52;;;;;;;6.60;3.55;;;;;16.40;99079.00;;;;5052463;28;20102;-60
2023/05/31 05:16:22;;;;;;;9.32;3.60;;;;;16.50;99080.00;;;;5053101;28;20041;-60
2023/05/31 05:18:49;;;;;;;10.43;4.25;;;;;16.60;99088.00;;;;5052858;28;20041;-60
2023/05/31 05:21:16;;;;;;;10.30;3.50;;;;;16.70;99097.00;;;;5052751;28;20045;-60
2023/05/31 05:23:44;;;;;;;9.18;3.53;;;;;16.80;99087.00;;;;5052723;28;20056;-60
2023/05/31 05:26:11;;;;;;;9.93;3.17;;;;;16.80;99087.00;;;;5053856;28;20045;-61
2023/05/31 05:28:39;;;;;;;14.43;3.78;;;;;16.80;99080.00;;;;5052320;28;20075;-61
2023/05/31 05:31:06;;;;;;;11.75;3.97;;;;;16.90;99076.00;;;;5052329;28;20064;-61
2023/05/31 05:33:41;;;;;;;9.23;3.88;;;;;16.90;99077.00;;;;5052480;28;20655;-62
2023/05/31 05:36:08;;;;;;;6.05;3.20;;;;;16.90;99082.00;;;;5052221;28;20068;-62
2023/05/31 05:38:41;;;;;;;7.82;3.50;;;;;17.00;99086.00;;;;5052566;28;20037;-61
2023/05/31 05:41:12;;;;;;;9.80;3.65;;;;;17.10;99087.00;;;;5051813;28;20136;-62
2023/05/31 05:43:41;;;;;;;9.32;3.35;;;;;17.10;99090.00;;;;5052190;28;20056;-62
2023/05/31 05:46:13;;;;;;;8.87;3.17;;;;;17.20;99097.00;;;;5053267;28;20049;-61
2023/05/31 05:48:41;;;;;;;9.93;3.90;;;;;17.20;99089.00;;;;5052077;28;20305;-60
2023/05/31 05:51:08;;;;;;;6.43;3.28;;;;;17.30;99092.00;;;;5051869;28;20498;-61
2023/05/31 05:53:35;;;;;;;6.78;3.20;;;;;17.30;99083.00;;;;5052067;28;20045;-61
2023/05/31 05:56:02;;;;;;;8.23;3.78;;;;;17.40;99095.00;;;;5053956;28;20041;-64
2023/05/31 05:58:42;;;;;;;10.65;3.50;;;;;17.40;99092.00;;;;5052269;28;20099;-60
2023/05/31 06:01:38;;;;;;;9.15;3.10;;;;;17.40;99084.00;;;;5033267;28;20072;-60
2023/05/31 06:04:06;;;;;;;7.22;2.65;;;;;17.60;99081.00;;;;5052126;28;20048;-62
2023/05/31 06:06:33;;;;;;;9.05;3.40;;;;;17.60;99090.00;;;;5035670;28;20055;-62
2023/05/31 06:09:00;;;;;;;16.63;4.28;;;;;17.70;99089.00;;;;5051620;28;20524;-60
2023/05/31 06:11:27;;;;;;;5.95;2.70;;;;;17.70;99084.00;;;;5051972;28;20059;-60
2023/05/31 06:13:57;;;;;;;9.05;3.13;;;;;17.70;99080.00;;;;5051913;28;20057;-61
2023/05/31 06:16:29;;;;;;;4.95;2.50;;;;;17.70;99085.00;;;;5035787;28;20103;-60
2023/05/31 06:18:56;;;;;;;7.60;3.03;;;;;17.80;99089.00;;;;5051597;28;20041;-62
2023/05/31 06:21:23;;;;;;;7.20;3.40;;;;;18.00;99092.00;;;;5051455;28;20048;-62
2023/05/31 06:23:50;;;;;;;7.38;2.95;;;;;18.00;99083.00;;;;5052435;28;20041;-61
2023/05/31 06:26:17;;;;;;;7.75;3.22;;;;;18.10;99093.00;;;;5051293;28;20049;-62
2023/05/31 06:28:45;;;;;;;8.65;2.83;;;;;18.10;99092.00;;;;5051479;28;20533;-60
2023/05/31 06:31:31;;;;;;;6.47;2.63;;;;;18.10;99091.00;;;;5052864;28;20059;-63
2023/05/31 06:33:58;;;;;;;7.85;3.00;;;;;18.10;99096.00;;;;5052639;28;20045;-62
2023/05/31 06:36:25;;;;;;;4.78;2.90;;;;;18.20;99093.00;;;;5051494;28;20052;-61
2023/05/31 06:38:52;;;;;;;5.95;2.70;;;;;18.30;99084.00;;;;5051119;28;20048;-62
2023/05/31 06:41:18;;;;;;;4.35;2.75;;;;;18.30;99091.00;;;;5051239;28;20072;-62
2023/05/31 06:43:45;;;;;;;6.43;3.10;;;;;18.40;99089.00;;;;5051396;28;20073;-61
2023/05/31 06:46:35;;;;;;;7.90;3.35;;;;;18.40;99083.00;;;;5052151;28;20056;-61
2023/05/31 06:49:24;;;;;;;7.65;2.22;;;;;18.40;99087.00;;;;5051083;28;20049;-61
2023/05/31 06:52:12;;;;;;;8.27;2.67;;;;;18.40;99083.00;;;;5054770;28;20128;-61
2023/05/31 06:55:08;;;;;;;4.60;2.30;;;;;18.40;99082.00;;;;5053527;28;20061;-62
2023/05/31 06:57:37;;;;;;;6.85;2.65;;;;;18.60;99082.00;;;;5035650;28;20045;-62
2023/05/31 07:00:05;;;;;;;4.32;2.47;;;;;18.70;99090.00;;;;5050612;28;20079;-61
2023/05/31 07:02:31;;;;;;;7.75;2.97;;;;;18.70;99085.00;;;;5052170;28;20162;-61
2023/05/31 07:04:59;;;;;;;5.95;2.70;;;;;18.80;99088.00;;;;5052113;28;20045;-61
2023/05/31 07:07:26;;;;;;;5.85;2.47;;;;;18.90;99084.00;;;;5050869;28;20140;-62
2023/05/31 07:09:53;;;;;;;8.32;2.70;;;;;19.10;99083.00;;;;5034236;28;20380;-62
2023/05/31 07:12:19;;;;;;;6.47;2.85;;;;;19.20;99089.00;;;;5051068;28;20045;-62
2023/05/31 07:14:46;;;;;;;4.55;2.50;;;;;19.20;99085.00;;;;5051127;28;20095;-62
2023/05/31 07:17:14;;;;;;;6.90;2.65;;;;;19.30;99083.00;;;;5034432;28;20041;-63
2023/05/31 07:19:48;;;;;;;6.25;2.45;;;;;19.40;99079.00;;;;5050568;28;20044;-61
2023/05/31 07:22:16;;;;;;;10.38;2.63;;;;;19.40;99077.00;;;;5051842;28;20120;-60
2023/05/31 07:24:43;;;;;;;7.78;2.63;;;;;19.40;99079.00;;;;5052293;28;20037;-62
2023/05/31 07:27:10;;;;;;;4.07;2.15;;;;;19.50;99081.00;;;;5052351;28;20045;-62
2023/05/31 07:29:37;;;;;;;5.30;2.47;;;;;19.50;99075.00;;;;5051469;28;20064;-62
2023/05/31 07:32:03;;;;;;;7.38;2.40;;;;;19.60;99067.00;;;;5052090;28;20051;-62
2023/05/31 07:34:30;;;;;;;5.93;2.95;;;;;19.70;99068.00;;;;5051920;28;20045;-63
2023/05/31 07:36:57;;;;;;;5.82;2.45;;;;;19.90;99060.00;;;;5055546;28;20095;-62
2023/05/31 07:39:24;;;;;;;7.15;2.58;;;;;19.90;99066.00;;;;5037737;28;20045;-62
2023/05/31 07:41:50;;;;;;;5.07;2.40;;;;;19.90;99065.00;;;;5055635;28;20044;-62
2023/05/31 07:44:18;;;;;;;8.75;2.47;;;;;19.90;99066.00;;;;5054912;28;20114;-62
2023/05/31 07:46:44;;;;;;;6.07;2.35;;;;;20.00;99063.00;;;;5055940;28;20506;-63
2023/05/31 07:49:11;;;;;;;5.72;2.60;;;;;20.00;99059.00;;;;5055867;28;20045;-61
2023/05/31 07:51:38;;;;;;;3.13;2.17;;;;;20.20;99070.00;;;;5055320;28;20131;-62
2023/05/31 07:54:05;;;;;;;11.60;3.20;;;;;20.20;99068.00;;;;5055593;28;20040;-62
2023/05/31 07:56:31;;;;;;;5.80;2.53;;;;;20.20;99062.00;;;;5055374;28;20103;-62
2023/05/31 07:58:58;;;;;;;6.50;2.63;;;;;20.30;99068.00;;;;5055909;28;20037;-65
2023/05/31 08:01:25;;;;;;;7.18;2.75;;;;;20.40;99065.00;;;;5054771;28;20136;-63
2023/05/31 08:03:54;;;;;;;4.72;2.30;;;;;20.50;99052.00;;;;5054887;28;20137;-61
2023/05/31 08:06:22;;;;;;;8.55;2.55;;;;;20.70;99057.00;;;;5056010;28;20667;-62
2023/05/31 08:08:48;;;;;;;6.18;2.67;;;;;20.60;99051.00;;;;5054962;28;20079;-62
2023/05/31 08:11:15;;;;;;;3.70;2.42;;;;;20.70;99053.00;;;;5055377;28;20501;-63
2023/05/31 08:13:42;;;;;;;4.22;2.75;;;;;20.70;99040.00;;;;5055268;28;20103;-62
2023/05/31 08:16:08;;;;;;;5.55;2.60;;;;;20.80;99052.00;;;;5055465;28;20044;-62
2023/05/31 08:18:35;;;;;;;6.88;3.90;;;;;20.90;99048.00;;;;5055290;28;20098;-63
2023/05/31 08:21:02;;;;;;;9.70;3.53;;;;;21.00;99053.00;;;;5055057;28;20041;-62
2023/05/31 08:23:29;;;;;;;5.50;2.70;;;;;21.10;99040.00;;;;5055205;28;20065;-62
2023/05/31 08:25:56;;;;;;;5.85;2.65;;;;;21.10;99041.00;;;;5055664;28;20140;-61
2023/05/31 08:28:23;;;;;;;7.00;2.60;;;;;21.30;99034.00;;;;5056154;28;20039;-62
2023/05/31 08:30:49;;;;;;;7.72;2.65;;;;;21.30;99037.00;;;;5053822;28;20048;-62
2023/05/31 08:33:16;;;;;;;5.22;2.42;;;;;21.40;99034.00;;;;5054047;28;20052;-62
2023/05/31 08:35:43;;;;;;;5.63;2.63;;;;;21.40;99029.00;;;;5054681;28;20055;-62
2023/05/31 08:38:09;;;;;;;11.48;2.60;;;;;21.50;99029.00;;;;5054259;28;20124;-62
2023/05/31 08:40:36;;;;;;;8.18;2.63;;;;;21.60;99040.00;;;;5054442;28;20120;-62
2023/05/31 08:43:15;;;;;;;4.30;2.08;;;;;21.60;99031.00;;;;5053386;28;20144;-62
2023/05/31 08:45:44;;;;;;;12.85;2.83;;;;;21.70;99038.00;;;;5054155;28;20071;-62
2023/05/31 08:48:14;;;;;;;6.95;2.75;;;;;21.60;99024.00;;;;5054501;28;20075;-61
2023/05/31 08:50:42;;;;;;;6.85;2.55;;;;;21.60;99032.00;;;;5055293;28;20045;-62
2023/05/31 08:53:10;;;;;;;6.55;2.50;;;;;21.70;99025.00;;;;5056144;28;20386;-64
2023/05/31 08:55:38;;;;;;;5.28;2.28;;;;;21.80;99038.00;;;;5055052;28;20052;-61
2023/05/31 08:58:05;;;;;;;8.63;3.90;;;;;21.90;99037.00;;;;5055862;28;20490;-62
2023/05/31 09:00:35;;;;;;;5.28;2.63;;;;;22.00;99032.00;;;;5053798;28;20064;-62
2023/05/31 09:03:06;;;;;;;5.25;2.88;;;;;21.90;99038.00;;;;5055285;28;20095;-62
2023/05/31 09:05:33;;;;;;;5.47;2.42;;;;;22.00;99027.00;;;;5053333;28;20049;-61
2023/05/31 09:08:00;;;;;;;7.40;2.60;;;;;22.10;99028.00;;;;5052906;28;20136;-61
2023/05/31 09:10:28;;;;;;;6.15;2.42;;;;;22.20;99034.00;;;;5053943;28;20040;-61
2023/05/31 09:12:55;;;;;;;5.32;2.75;;;;;22.10;99021.00;;;;5053037;28;20045;-62
2023/05/31 09:15:24;;;;;;;6.45;2.65;;;;;22.40;99027.00;;;;5053901;28;20045;-62
2023/05/31 09:17:50;;;;;;;3.90;2.00;;;;;22.60;99027.00;;;;5053939;28;20118;-62
2023/05/31 09:20:18;;;;;;;4.30;2.97;;;;;22.70;99027.00;;;;5053690;28;20041;-62
2023/05/31 09:22:49;;;;;;;4.85;2.25;;;;;22.70;99022.00;;;;5054006;28;20076;-62
2023/05/31 09:25:15;;;;;;;5.57;2.88;;;;;22.90;99016.00;;;;5053660;28;20113;-62
2023/05/31 09:27:42;;;;;;;4.45;2.50;;;;;23.00;99013.00;;;;5053931;28;20116;-62
2023/05/31 09:30:10;;;;;;;4.90;2.22;;;;;23.10;99011.00;;;;5052238;28;20420;-63
2023/05/31 09:32:38;;;;;;;8.27;2.50;;;;;23.20;99011.00;;;;5053806;28;20152;-63
2023/05/31 09:35:16;;;;;;;11.20;2.80;;;;;23.10;99012.00;;;;5053624;28;20047;-62
2023/05/31 09:37:48;;;;;;;4.72;2.22;;;;;23.10;99017.00;;;;5052613;28;20099;-62
2023/05/31 09:40:22;;;;;;;4.75;2.60;;;;;23.20;99017.00;;;;5053441;28;20086;-64
2023/05/31 09:42:49;;;;;;;6.97;2.55;;;;;23.30;99006.00;;;;5053485;28;20056;-62
2023/05/31 09:45:17;;;;;;;5.40;2.45;;;;;23.30;99007.00;;;;5053425;28;20094;-60
2023/05/31 09:47:44;;;;;;;5.85;2.22;;;;;23.30;99013.00;;;;5052068;28;20049;-61
2023/05/31 09:50:15;;;;;;;9.32;2.45;;;;;23.40;99010.00;;;;5053249;28;20124;-62
2023/05/31 09:52:43;;;;;;;4.25;2.40;;;;;23.20;99018.00;;;;5053447;28;20098;-64
2023/05/31 09:55:16;;;;;;;4.93;2.30;;;;;23.20;99012.00;;;;5053258;28;20395;-63
2023/05/31 09:57:45;;;;;;;6.53;2.55;;;;;23.20;99003.00;;;;5053141;28;20052;-63
2023/05/31 10:00:20;;;;;;;7.20;2.15;;;;;23.40;99014.00;;;;5053146;28;20120;-63
2023/05/31 10:02:47;;;;;;;6.85;2.40;;;;;23.30;99015.00;;;;5053825;28;20144;-65
2023/05/31 10:05:16;;;;;;;3.78;2.03;;;;;23.40;99025.00;;;;5035731;28;20128;-62
2023/05/31 10:07:45;;;;;;;3.45;2.28;;;;;23.40;99015.00;;;;5052862;28;20075;-63
2023/05/31 10:10:12;;;;;;;6.00;2.30;;;;;23.30;99003.00;;;;5052798;28;20045;-63
2023/05/31 10:12:48;;;;;;;5.78;2.80;;;;;23.50;99010.00;;;;5053315;28;20044;-63
2023/05/31 10:15:18;;;;;;;6.45;2.60;;;;;23.70;99015.00;;;;5051895;28;20069;-63
2023/05/31 10:18:01;;;;;;;6.40;2.50;;;;;23.60;99001.00;;;;5052844;28;20049;-63
2023/05/31 10:20:38;;;;;;;5.78;1.88;;;;;23.60;99003.00;;;;5051674;28;20083;-64
2023/05/31 10:23:14;;;;;;;7.63;2.30;;;;;23.90;99002.00;;;;5051613;28;20068;-63
2023/05/31 10:25:47;;;;;;;4.57;1.95;;;;;23.90;99012.00;;;;5052639;28;20045;-63
2023/05/31 10:28:18;;;;;;;4.38;2.78;;;;;23.70;98998.00;;;;5052593;28;20116;-63
2023/05/31 10:30:47;;;;;;;4.97;2.13;;;;;23.80;99004.00;;;;5052157;28;20060;-62
2023/05/31 10:33:15;;;;;;;4.63;2.17;;;;;24.00;99006.00;;;;5052874;28;20482;-63
2023/05/31 10:35:44;;;;;;;2.72;2.25;;;;;24.10;99010.00;;;;5052609;28;20471;-63
2023/05/31 10:38:14;;;;;;;4.82;1.92;;;;;24.10;99011.00;;;;5052887;28;20079;-64
2023/05/31 10:40:49;;;;;;;6.80;2.53;;;;;24.00;98986.00;;;;5051075;28;20052;-62
2023/05/31 10:43:24;;;;;;;6.60;2.50;;;;;24.10;98993.00;;;;5051095;28;20143;-62
2023/05/31 10:46:18;;;;;;;7.60;2.00;;;;;24.30;98997.00;;;;5051152;28;20049;-62
2023/05/31 10:48:52;;;;;;;;;;;;;24.30;98993.00;;;;5046313;28;20071;-62
2023/05/31 10:51:19;;;;;;;3.42;2.15;;;;;24.20;98980.00;;;;5052468;28;19925;-62
2023/05/31 10:53:46;;;;;;;5.80;2.40;;;;;24.20;98989.00;;;;5051112;28;20098;-63
2023/05/31 10:56:14;;;;;;;3.40;2.00;;;;;24.30;98983.00;;;;5054052;28;20047;-63
2023/05/31 10:58:43;;;;;;;6.13;2.63;;;;;24.20;98981.00;;;;5060955;28;20044;-62
2023/05/31 11:01:11;;;;;;;6.20;2.30;;;;;24.30;98987.00;;;;5057663;28;20048;-64
2023/05/31 11:03:51;;;;;;;5.18;2.30;;;;;24.40;98982.00;;;;5052906;28;20555;-61
2023/05/31 11:06:36;;;;;;;5.00;2.17;;;;;24.40;98997.00;;;;5052386;28;20098;-60
2023/05/31 11:09:15;;;;;;;4.60;2.13;;;;;24.40;98988.00;;;;5050985;28;20071;-61
2023/05/31 11:11:47;;;;;;;6.03;2.10;;;;;24.50;98979.00;;;;5052082;28;20075;-62
2023/05/31 11:14:16;;;;;;;6.35;2.00;;;;;24.60;98984.00;;;;5052039;28;20044;-62
2023/05/31 11:17:04;;;;;;;4.47;2.20;;;;;24.70;98983.00;;;;5051925;28;20056;-61
2023/05/31 11:19:33;;;;;;;4.43;1.80;;;;;24.60;98985.00;;;;5050757;28;20037;-61
2023/05/31 11:22:13;;;;;;;4.32;2.10;;;;;24.70;98975.00;;;;5050494;28;20147;-62
2023/05/31 11:24:47;;;;;;;3.75;1.77;;;;;24.70;98979.00;;;;5052640;28;20083;-62
2023/05/31 11:27:14;;;;;;;4.40;2.25;;;;;24.80;98991.00;;;;5053143;28;20486;-66
2023/05/31 11:29:46;;;;;;;4.53;1.90;;;;;24.80;98984.00;;;;5052770;28;20577;-59
2023/05/31 11:32:14;;;;;;;7.03;2.08;;;;;24.70;98978.00;;;;5035557;28;20107;-60
2023/05/31 11:34:53;;;;;;;3.10;1.58;;;;;24.70;98977.00;;;;5053516;28;20045;-61
2023/05/31 11:37:23;;;;;;;3.35;2.00;;;;;24.70;98972.00;;;;5052661;28;20132;-62
2023/05/31 11:39:50;;;;;;;4.85;1.83;;;;;24.80;98979.00;;;;5053090;28;20072;-60
2023/05/31 11:42:17;;;;;;;4.57;1.90;;;;;24.90;98969.00;;;;5051892;28;20464;-61
2023/05/31 11:44:45;;;;;;;3.83;1.88;;;;;25.10;98970.00;;;;5052430;28;20119;-61
2023/05/31 11:47:30;;;;;;;7.00;2.63;;;;;25.10;98971.00;;;;5051776;28;20049;-60
2023/05/31 11:49:57;;;;;;;4.22;1.95;;;;;25.10;98970.00;;;;5052335;28;20076;-62
2023/05/31 11:52:24;;;;;;;3.70;2.05;;;;;25.00;98967.00;;;;5051736;28;20044;-61
2023/05/31 11:54:54;;;;;;;5.57;1.75;;;;;25.10;98960.00;;;;5052801;28;20071;-61
2023/05/31 11:57:22;;;;;;;3.20;2.10;;;;;25.20;98958.00;;;;5052490;28;20167;-61
2023/05/31 11:59:48;;;;;;;2.83;2.00;;;;;25.30;98966.00;;;;5052126;28;20037;-62
2023/05/31 12:02:17;;;;;;;5.53;1.85;;;;;25.20;98951.00;;;;5053123;28;20045;-64
2023/05/31 12:04:44;;;;;;;2.75;1.88;;;;;25.20;98943.00;;;;5053193;28;20099;-61
2023/05/31 12:07:17;;;;;;;4.28;1.98;;;;;25.50;98946.00;;;;5052976;28;20043;-60
2023/05/31 12:09:44;;;;;;;7.13;2.40;;;;;25.40;98945.00;;;;5051350;28;20051;-62
2023/05/31 12:12:11;;;;;;;4.35;1.98;;;;;25.40;98941.00;;;;5051418;28;20124;-60
2023/05/31 12:14:38;;;;;;;7.55;4.30;;;;;25.40;98938.00;;;;5052559;28;20123;-62
2023/05/31 12:17:05;;;;;;;4.60;1.85;;;;;25.50;98947.00;;;;5052365;28;20099;-61
2023/05/31 12:19:32;;;;;;;4.78;2.15;;;;;25.60;98933.00;;;;5051843;28;20449;-63
2023/05/31 12:22:01;;;;;;;3.28;1.80;;;;;25.50;98940.00;;;;5053930;28;20071;-62
2023/05/31 12:24:28;;;;;;;6.45;1.90;;;;;25.40;98937.00;;;;5055393;28;20096;-62
2023/05/31 12:26:55;;;;;;;6.80;2.05;;;;;25.50;98927.00;;;;5055616;28;20045;-62